Jennerstown, PA (15547)

9:41 PM EDT on September 21, 2014 (GMT -0400)
Stoystown | Change Station
CLOSE
Current Station
Personal Weather Station
Location: Stoystown, PA
Elevation: 2172 ft
Nearby Weather Stations

Elev 2172 ft 40.11 °N, 78.94 °W | Updated 0 second ago

Clear
Clear
61.5 °F
Feels Like 61.5 °F
N
15.9
Wind Variable Wind from West
Gusts 15.9 mph

Today
High -- | Low -- °F
--% Chance of Precip.
Yesterday
High -- | Low -- °F
Precip. -- in
7:02 AM 7:15 PM
Waning Crescent, 4% visible
Pressure 29.77 in
Visibility 10.0 miles
Clouds Clear
Dew Point 15 °F
Humidity 16%
Rainfall 0.00 in
Snow Depth Not available.
UV 0 out of 12
Pollen 2.90 out of 12
Ozone Good
PM2.5 Good
Flu Activity Not available.
METAR KJST 220054Z AUTO 29014KT 10SM CLR 16/11 A2979 RMK AO2 SLP079 T01610106

More Conditions Fewer Conditions

Pressure 29.77 in
Visibility 10.0 miles
Clouds Clear
Dew Point 15 °F
Humidity 16%
Rainfall 0.00 in
Snow Depth Not available.
UV 0 out of 12
Pollen 2.90 out of 12
Ozone Good
PM2.5 Good
Flu Activity Not available.
METAR KJST 220054Z AUTO 29014KT 10SM CLR 16/11 A2979 RMK AO2 SLP079 T01610106

More Conditions Fewer Conditions

10-Day Weather Forecast

Almanac

Astronomy

Sep. 21, 2014 Rise Set
Actual Time 7:02 AM EDT 7:15 PM EDT
Civil Twilight 6:35 AM EDT 7:42 PM EDT
Nautical Twilight 6:03 AM EDT 8:13 PM EDT
Astronomical Twilight 5:31 AM EDT 8:46 PM EDT
Moon 4:34 AM EDT (9/21) 5:50 PM EDT (9/21)
Length of Visible Light 13h 06m
Length of Day
12h 12m
Tomorrow will be 2m 38s shorter.
Waning Crescent, 4% of the Moon is Illuminated
Today
Waning Crescent
Sep 24
New
Oct 1
First Quarter
Oct 8
Full
Oct 15
Last Quarter

Today's Extremes

State Highs State Lows

Community

WunderPhotos

Upload Photos

1,755,347 photos uploaded!

WunderBlogs® & News

Nearby

Air Quality

  Air Quality AQ Index Pollutant
Yesterday Moderate
PM2.5
Yesterday Good
OZONE
Current Good
PM2.5
Current Good
OZONE
Sunday Moderate
PM2.5
Monday Good
PM2.5
Tuesday Good
PM2.5

Snow Depth

Station Depth Elevation
No new snow has been reported.

Earthquake Activity

City Distance Mag. Time & Date
No recent earthquake activity has been reported nearby.
Minimum magnitude displayed is 2.5.

Coastal Water Temperatures

Place Temperature
No Stations Reporting

Nearby Weather Stations